Time;durP1;ratioP1;P1;durP2;ratioP2;P2;SDS_P1;SDS_P2;PMS_P1;PMS_P2;Temp;Humidity;BMP_temperature;BMP_pressure;BME280_temperature;BME280_humidity;BME280_pressure;Samples;Min_cycle;Max_cycle;Signal;HPM_P1;HPM_P2
2022/08/24 00:00:10;;;;;;;7.38;4.78;;;20.50;99.90;;;;;;5051362;28;20056;-60
2022/08/24 00:02:35;;;;;;;9.40;5.05;;;20.30;99.90;;;;;;5049753;28;20032;-59
2022/08/24 00:05:01;;;;;;;7.75;5.88;;;20.20;99.90;;;;;;5051274;28;20035;-60
2022/08/24 00:07:28;;;;;;;15.18;6.80;;;20.30;99.90;;;;;;5051062;28;20149;-60
2022/08/24 00:09:54;;;;;;;11.35;7.03;;;20.40;99.90;;;;;;5051589;28;20044;-61
2022/08/24 00:12:19;;;;;;;11.13;6.88;;;20.60;99.90;;;;;;5051233;28;20033;-60
2022/08/24 00:14:45;;;;;;;11.05;7.13;;;20.70;99.90;;;;;;5051055;28;20068;-60
2022/08/24 00:17:11;;;;;;;10.77;7.80;;;20.70;99.90;;;;;;5049702;28;20075;-60
2022/08/24 00:19:37;;;;;;;11.85;7.93;;;20.50;99.90;;;;;;5050759;28;20021;-60
2022/08/24 00:22:03;;;;;;;10.55;7.78;;;20.50;99.90;;;;;;5049442;28;20029;-60
2022/08/24 00:24:29;;;;;;;10.45;8.18;;;20.50;99.90;;;;;;5051061;28;20032;-60
2022/08/24 00:26:55;;;;;;;11.77;8.48;;;20.40;99.90;;;;;;5049348;28;20414;-61
2022/08/24 00:29:21;;;;;;;12.25;7.65;;;20.40;99.90;;;;;;5051071;28;20021;-60
2022/08/24 00:31:47;;;;;;;12.80;7.72;;;20.50;99.90;;;;;;5050713;28;20025;-60
2022/08/24 00:34:14;;;;;;;8.65;7.38;;;20.50;99.90;;;;;;5050767;28;20028;-60
2022/08/24 00:36:40;;;;;;;12.55;7.63;;;20.60;99.90;;;;;;5050660;28;20056;-60
2022/08/24 00:39:07;;;;;;;9.23;7.38;;;20.70;99.90;;;;;;5049569;28;20490;-60
2022/08/24 00:41:33;;;;;;;9.43;7.25;;;20.70;99.90;;;;;;5050664;28;20021;-60
2022/08/24 00:44:04;;;;;;;9.48;7.60;;;20.50;99.90;;;;;;5050693;28;20396;-61
2022/08/24 00:46:47;;;;;;;13.55;7.97;;;20.40;99.90;;;;;;5049304;28;20033;-59
2022/08/24 00:49:24;;;;;;;13.93;7.88;;;20.30;99.90;;;;;;5050932;28;20032;-60
2022/08/24 00:52:18;;;;;;;18.50;7.75;;;20.30;99.90;;;;;;5050990;28;20025;-60
2022/08/24 00:54:49;;;;;;;11.85;7.93;;;20.40;99.90;;;;;;5050652;28;20040;-60
2022/08/24 00:57:17;;;;;;;9.20;8.23;;;20.60;99.90;;;;;;5050607;28;20083;-60
2022/08/24 00:59:51;;;;;;;10.85;7.28;;;20.70;99.90;;;;;;5050725;28;20696;-60
2022/08/24 01:02:21;;;;;;;12.10;8.40;;;20.60;99.90;;;;;;5050899;28;20029;-59
2022/08/24 01:04:55;;;;;;;12.07;8.70;;;20.70;99.90;;;;;;5050484;28;20488;-60
2022/08/24 01:07:26;;;;;;;9.00;7.32;;;20.60;99.90;;;;;;5050472;28;20040;-61
2022/08/24 01:09:53;;;;;;;11.20;7.97;;;20.50;99.90;;;;;;5050607;28;20036;-60
2022/08/24 01:12:21;;;;;;;11.52;8.52;;;20.50;99.90;;;;;;5050956;28;20045;-60
2022/08/24 01:14:47;;;;;;;10.35;8.45;;;20.50;99.90;;;;;;5050515;28;20498;-60
2022/08/24 01:19:57;;;;;;;12.20;8.20;;;20.50;99.90;;;;;;5051136;28;20104;-60
2022/08/24 01:22:23;;;;;;;9.55;7.75;;;20.40;99.90;;;;;;5050279;28;20025;-60
2022/08/24 01:24:48;;;;;;;10.02;7.13;;;20.30;99.90;;;;;;5050453;28;20053;-60
2022/08/24 01:27:15;;;;;;;11.00;7.72;;;20.20;99.90;;;;;;5050608;28;20059;-60
2022/08/24 01:29:42;;;;;;;10.18;8.13;;;20.20;99.90;;;;;;5050492;28;20029;-60
2022/08/24 01:32:09;;;;;;;15.25;9.35;;;20.30;99.90;;;;;;5052181;28;20502;-60
2022/08/24 01:34:35;;;;;;;11.48;7.65;;;20.10;99.90;;;;;;5053831;28;20550;-60
2022/08/24 01:37:02;;;;;;;11.48;8.25;;;20.10;99.90;;;;;;5053646;28;20039;-60
2022/08/24 01:39:35;;;;;;;11.98;8.13;;;19.90;99.90;;;;;;5052558;28;20024;-60
2022/08/24 01:42:01;;;;;;;17.85;9.88;;;19.90;99.90;;;;;;5053675;28;20033;-59
2022/08/24 01:44:29;;;;;;;11.73;9.85;;;19.90;99.90;;;;;;5052312;28;20024;-60
2022/08/24 01:46:56;;;;;;;12.50;9.32;;;20.10;99.90;;;;;;5053564;28;20040;-61
2022/08/24 01:49:28;;;;;;;15.45;9.95;;;20.00;99.90;;;;;;5052368;28;20021;-60
2022/08/24 01:51:54;;;;;;;15.93;10.25;;;19.90;99.90;;;;;;5053645;28;20032;-60
2022/08/24 01:54:20;;;;;;;13.00;10.73;;;19.80;99.90;;;;;;5051871;28;20387;-60
2022/08/24 01:56:45;;;;;;;12.63;10.13;;;19.60;99.90;;;;;;5053597;28;20047;-60
2022/08/24 01:59:12;;;;;;;10.02;8.57;;;19.50;99.90;;;;;;5053409;28;20044;-60
2022/08/24 02:01:41;;;;;;;10.60;9.32;;;19.50;99.90;;;;;;5053190;28;20025;-60
2022/08/24 02:04:07;;;;;;;11.43;9.07;;;19.40;99.90;;;;;;5052179;28;20481;-59
2022/08/24 02:06:33;;;;;;;11.73;9.48;;;19.50;99.90;;;;;;5053053;28;20071;-59
2022/08/24 02:09:00;;;;;;;14.27;9.57;;;19.60;99.90;;;;;;5053239;28;20037;-60
2022/08/24 02:11:26;;;;;;;10.27;9.10;;;19.60;99.90;;;;;;5053104;28;20482;-60
2022/08/24 02:13:52;;;;;;;15.18;8.80;;;19.70;99.90;;;;;;5053066;28;20040;-60
2022/08/24 02:16:18;;;;;;;12.45;9.43;;;19.70;99.90;;;;;;5053069;28;20371;-60
2022/08/24 02:18:44;;;;;;;12.60;9.50;;;19.80;99.90;;;;;;5053277;28;20031;-59
2022/08/24 02:21:11;;;;;;;10.50;8.70;;;19.70;99.90;;;;;;5052978;28;20070;-60
2022/08/24 02:23:38;;;;;;;13.20;9.85;;;19.60;99.90;;;;;;5053097;28;20257;-60
2022/08/24 02:26:05;;;;;;;15.48;9.75;;;19.50;99.90;;;;;;5051585;28;20017;-61
2022/08/24 02:28:31;;;;;;;18.17;9.73;;;19.60;99.90;;;;;;5052955;28;20444;-59
2022/08/24 02:30:57;;;;;;;14.02;10.70;;;19.50;99.90;;;;;;5052924;28;20127;-59
2022/08/24 02:33:23;;;;;;;13.38;9.95;;;19.50;99.90;;;;;;5052821;28;20028;-59
2022/08/24 02:35:49;;;;;;;11.20;8.98;;;19.50;99.90;;;;;;5052511;28;20033;-60
2022/08/24 02:38:15;;;;;;;11.82;9.07;;;19.40;99.90;;;;;;5053258;28;20036;-59
2022/08/24 02:40:42;;;;;;;10.45;8.65;;;19.50;99.90;;;;;;5052499;28;20229;-60
2022/08/24 02:43:08;;;;;;;11.95;9.05;;;19.60;99.90;;;;;;5052290;28;20033;-60
2022/08/24 02:45:38;;;;;;;12.00;8.80;;;19.70;99.90;;;;;;5052607;28;20032;-60
2022/08/24 02:48:04;;;;;;;11.05;8.55;;;19.70;99.90;;;;;;5052557;28;20379;-60
2022/08/24 02:50:30;;;;;;;12.73;8.32;;;19.70;99.90;;;;;;5052336;28;20104;-60
2022/08/24 02:52:55;;;;;;;10.88;8.00;;;19.70;99.90;;;;;;5051022;28;20044;-60
2022/08/24 02:55:21;;;;;;;10.82;7.88;;;19.60;99.90;;;;;;5052053;28;20028;-60
2022/08/24 02:57:49;;;;;;;12.10;8.82;;;19.60;99.90;;;;;;5052365;28;20025;-61
2022/08/24 03:00:17;;;;;;;10.18;8.45;;;19.80;99.90;;;;;;5052156;28;20045;-60
2022/08/24 03:02:44;;;;;;;15.23;9.85;;;19.90;99.90;;;;;;5052204;28;20025;-59
2022/08/24 03:05:10;;;;;;;11.52;9.07;;;20.00;99.90;;;;;;5052393;28;20023;-60
2022/08/24 03:07:36;;;;;;;12.40;8.98;;;20.10;99.90;;;;;;5052159;28;20036;-60
2022/08/24 03:10:05;;;;;;;13.82;8.50;;;20.00;99.90;;;;;;5052324;28;20082;-60
2022/08/24 03:12:31;;;;;;;12.05;8.20;;;19.90;99.90;;;;;;5052152;28;20040;-60
2022/08/24 03:14:57;;;;;;;11.35;9.43;;;19.70;99.90;;;;;;5051836;28;20029;-60
2022/08/24 03:17:22;;;;;;;15.68;9.95;;;19.70;99.90;;;;;;5051649;28;20470;-60
2022/08/24 03:19:49;;;;;;;11.50;9.48;;;19.70;99.90;;;;;;5052534;28;20526;-60
2022/08/24 03:22:15;;;;;;;10.38;8.60;;;19.50;99.90;;;;;;5051882;28;20074;-60
2022/08/24 03:24:40;;;;;;;15.07;9.63;;;19.40;99.90;;;;;;5051755;28;20454;-60
2022/08/24 03:27:06;;;;;;;13.90;10.13;;;19.40;99.90;;;;;;5050524;28;20614;-60
2022/08/24 03:29:33;;;;;;;14.32;10.43;;;19.50;99.90;;;;;;5051839;28;20032;-60
2022/08/24 03:31:59;;;;;;;16.77;10.57;;;19.50;99.90;;;;;;5051834;28;20060;-60
2022/08/24 03:34:25;;;;;;;12.85;10.88;;;19.40;99.90;;;;;;5051956;28;20040;-60
2022/08/24 03:36:50;;;;;;;15.70;11.43;;;19.40;99.90;;;;;;5050775;28;20078;-60
2022/08/24 03:39:16;;;;;;;15.20;10.80;;;19.40;99.90;;;;;;5052067;28;20036;-61
2022/08/24 03:41:42;;;;;;;13.05;10.05;;;19.50;99.90;;;;;;5051883;28;20512;-60
2022/08/24 03:44:08;;;;;;;13.15;10.10;;;19.50;99.90;;;;;;5051961;28;20455;-60
2022/08/24 03:46:37;;;;;;;17.63;11.48;;;19.40;99.90;;;;;;5050437;28;20075;-60
2022/08/24 03:49:05;;;;;;;13.55;10.38;;;19.30;99.90;;;;;;5051874;28;20040;-60
2022/08/24 03:51:31;;;;;;;13.75;10.60;;;19.20;99.90;;;;;;5051637;28;20025;-60
2022/08/24 03:53:58;;;;;;;16.77;10.60;;;19.20;99.90;;;;;;5049741;28;20075;-60
2022/08/24 03:56:25;;;;;;;16.35;10.90;;;19.20;99.90;;;;;;5051287;28;20520;-59
2022/08/24 03:58:51;;;;;;;14.88;10.32;;;19.20;99.90;;;;;;5051627;28;20101;-60
2022/08/24 04:01:17;;;;;;;12.85;10.63;;;19.30;99.90;;;;;;5051615;28;20116;-60
2022/08/24 04:03:44;;;;;;;15.32;11.02;;;19.30;99.90;;;;;;5051304;28;20032;-60
2022/08/24 04:06:12;;;;;;;12.65;11.00;;;19.30;99.90;;;;;;5051717;28;20076;-59
2022/08/24 04:08:38;;;;;;;24.08;10.73;;;19.40;99.90;;;;;;5051605;28;20035;-60
2022/08/24 04:11:05;;;;;;;17.25;10.93;;;19.40;99.90;;;;;;5051062;28;20032;-60
2022/08/24 04:13:30;;;;;;;20.42;12.25;;;19.40;99.90;;;;;;5051381;28;20085;-60
2022/08/24 04:16:11;;;;;;;13.68;11.95;;;19.40;99.90;;;;;;5050886;28;20032;-60
2022/08/24 04:18:37;;;;;;;13.50;11.43;;;19.30;99.90;;;;;;5051181;28;20075;-60
2022/08/24 04:21:04;;;;;;;16.08;11.27;;;19.40;99.90;;;;;;5051069;28;20013;-60
2022/08/24 04:23:33;;;;;;;18.98;12.02;;;19.40;99.90;;;;;;5050951;28;20450;-60
2022/08/24 04:26:03;;;;;;;15.68;10.68;;;19.40;99.90;;;;;;5050763;28;20029;-59
2022/08/24 04:28:30;;;;;;;16.67;10.93;;;19.40;99.90;;;;;;5051135;28;20250;-59
2022/08/24 04:30:56;;;;;;;15.13;11.80;;;19.30;99.90;;;;;;5051154;28;20470;-61
2022/08/24 04:33:22;;;;;;;17.98;12.30;;;19.20;99.90;;;;;;5050771;28;20028;-59
2022/08/24 04:35:48;;;;;;;14.98;11.15;;;19.30;99.90;;;;;;5050799;28;20059;-59
2022/08/24 04:38:17;;;;;;;18.55;11.63;;;19.20;99.90;;;;;;5051542;28;20025;-60
2022/08/24 04:40:45;;;;;;;17.25;12.05;;;19.30;99.90;;;;;;5050818;28;20482;-59
2022/08/24 04:43:13;;;;;;;17.17;13.20;;;19.20;99.90;;;;;;5049160;28;20036;-59
2022/08/24 04:45:41;;;;;;;16.85;12.15;;;19.10;99.90;;;;;;5050652;28;20511;-59
2022/08/24 04:48:06;;;;;;;13.95;11.10;;;19.10;99.90;;;;;;5050774;28;20443;-60
2022/08/24 04:50:37;;;;;;;17.30;12.48;;;19.10;99.90;;;;;;5050729;28;20116;-59
2022/08/24 04:53:04;;;;;;;17.23;12.93;;;19.10;99.90;;;;;;5050827;28;20037;-59
2022/08/24 04:55:30;;;;;;;16.48;13.02;;;19.10;99.90;;;;;;5050410;28;20035;-60
2022/08/24 04:57:56;;;;;;;18.13;11.05;;;19.10;99.90;;;;;;5050785;28;20033;-60
2022/08/24 05:00:22;;;;;;;16.80;11.20;;;19.00;99.90;;;;;;5050514;28;20041;-60
2022/08/24 05:02:48;;;;;;;14.35;11.32;;;19.00;99.90;;;;;;5050673;28;20071;-60
2022/08/24 05:05:14;;;;;;;18.77;10.35;;;19.00;99.90;;;;;;5051254;28;20020;-60
2022/08/24 05:07:40;;;;;;;16.17;11.38;;;19.10;99.90;;;;;;5054076;28;20033;-61
2022/08/24 05:10:07;;;;;;;18.45;11.68;;;19.40;99.90;;;;;;5054564;28;20079;-59
2022/08/24 05:12:33;;;;;;;24.27;14.10;;;19.50;99.90;;;;;;5054632;28;20037;-59
2022/08/24 05:14:59;;;;;;;15.70;11.75;;;19.50;99.90;;;;;;5054195;28;20436;-59
2022/08/24 05:17:25;;;;;;;18.67;10.93;;;19.60;99.90;;;;;;5054203;28;20461;-60
2022/08/24 05:19:51;;;;;;;14.52;11.35;;;19.60;99.90;;;;;;5054243;28;20028;-60
2022/08/24 05:22:17;;;;;;;17.25;10.95;;;19.60;99.90;;;;;;5054131;28;20032;-59
2022/08/24 05:24:43;;;;;;;14.75;10.73;;;19.60;99.90;;;;;;5053011;28;20029;-59
2022/08/24 05:27:09;;;;;;;11.25;9.88;;;19.60;99.90;;;;;;5054189;28;20033;-59
2022/08/24 05:29:36;;;;;;;10.23;9.15;;;19.30;99.90;;;;;;5053096;28;20124;-59
2022/08/24 05:32:02;;;;;;;16.00;10.02;;;19.20;99.90;;;;;;5054342;28;20032;-59
2022/08/24 05:34:28;;;;;;;12.80;9.95;;;19.20;99.90;;;;;;5053501;28;20397;-59
2022/08/24 05:36:53;;;;;;;14.27;10.85;;;19.30;99.90;;;;;;5053596;28;20025;-59
2022/08/24 05:39:19;;;;;;;15.27;10.55;;;19.70;99.90;;;;;;5053773;28;20040;-59
2022/08/24 05:41:46;;;;;;;19.27;13.07;;;19.80;99.90;;;;;;5053490;28;20025;-59
2022/08/24 05:44:13;;;;;;;20.77;15.48;;;19.90;99.90;;;;;;5053675;28;20021;-59
2022/08/24 05:46:39;;;;;;;23.98;16.98;;;20.10;99.90;;;;;;5053700;28;20424;-59
2022/08/24 05:49:06;;;;;;;27.17;17.23;;;20.20;99.90;;;;;;5053518;28;20032;-59
2022/08/24 05:51:32;;;;;;;24.77;17.70;;;20.50;99.90;;;;;;5041661;28;20017;-59
2022/08/24 05:53:59;;;;;;;22.90;16.85;;;20.80;99.90;;;;;;5038088;28;20121;-59
2022/08/24 05:56:25;;;;;;;21.42;15.43;;;20.90;99.90;;;;;;5039292;28;20041;-60
2022/08/24 05:58:51;;;;;;;16.83;14.73;;;21.00;99.90;;;;;;5034878;28;20025;-60
2022/08/24 06:01:26;;;;;;;21.65;15.32;;;21.00;99.90;;;;;;5051155;28;20544;-57
2022/08/24 06:03:53;;;;;;;19.58;13.13;;;21.20;99.90;;;;;;5049582;28;20044;-57
2022/08/24 06:06:21;;;;;;;21.10;13.38;;;21.30;99.90;;;;;;5050527;28;20028;-60
2022/08/24 06:08:50;;;;;;;17.85;14.15;;;21.30;99.90;;;;;;5049500;28;20576;-60
2022/08/24 06:11:40;;;;;;;17.83;13.00;;;21.50;99.90;;;;;;5051186;28;20306;-60
2022/08/24 06:14:09;;;;;;;17.63;13.80;;;21.60;99.90;;;;;;5050939;28;20489;-58
2022/08/24 06:16:36;;;;;;;14.90;12.98;;;21.70;99.90;;;;;;5050197;28;20070;-58
2022/08/24 06:19:01;;;;;;;18.75;13.38;;;21.90;99.90;;;;;;5047846;28;20075;-58
2022/08/24 06:21:27;;;;;;;20.13;14.25;;;22.00;99.90;;;;;;5051556;28;20428;-58
2022/08/24 06:23:54;;;;;;;17.00;12.57;;;22.00;99.90;;;;;;5050467;28;20482;-58
2022/08/24 06:29:06;;;;;;;15.20;12.25;;;21.90;99.90;;;;;;5050170;28;20082;-60
2022/08/24 06:31:39;;;;;;;16.75;11.50;;;21.90;99.90;;;;;;5038969;28;20549;-60
2022/08/24 06:34:06;;;;;;;18.40;12.40;;;21.90;99.90;;;;;;5038479;28;20336;-60
2022/08/24 06:36:32;;;;;;;17.27;12.05;;;22.10;99.90;;;;;;5032455;28;20052;-60
2022/08/24 06:38:58;;;;;;;24.02;12.43;;;22.30;99.90;;;;;;5032200;28;20048;-60
2022/08/24 06:41:25;;;;;;;15.88;12.88;;;22.50;99.90;;;;;;5039594;28;20187;-60
2022/08/24 06:43:51;;;;;;;19.95;13.35;;;22.50;99.90;;;;;;5036442;28;20508;-60
2022/08/24 06:46:17;;;;;;;17.30;13.63;;;22.60;99.90;;;;;;5030601;28;20053;-60
2022/08/24 06:48:43;;;;;;;23.08;13.38;;;22.80;99.90;;;;;;5032515;28;20444;-60
2022/08/24 06:51:15;;;;;;;19.98;12.73;;;22.90;99.90;;;;;;5036752;28;20576;-60
2022/08/24 06:53:41;;;;;;;16.02;12.27;;;23.10;99.90;;;;;;5034809;28;20406;-60
2022/08/24 06:56:07;;;;;;;14.90;11.52;;;23.10;99.90;;;;;;5028257;28;20425;-60
2022/08/24 06:58:33;;;;;;;16.58;11.70;;;23.10;99.90;;;;;;5026791;28;20513;-60
2022/08/24 07:01:11;;;;;;;18.85;12.07;;;22.90;99.90;;;;;;5029582;28;20069;-60
2022/08/24 07:03:38;;;;;;;16.25;11.63;;;22.90;99.90;;;;;;5031425;28;20494;-60
2022/08/24 07:06:05;;;;;;;19.80;12.20;;;22.90;99.90;;;;;;5027774;28;20032;-60
2022/08/24 07:08:31;;;;;;;19.02;12.23;;;22.80;99.90;;;;;;5020239;28;20352;-60
2022/08/24 07:10:57;;;;;;;16.40;11.73;;;22.70;99.90;;;;;;5021674;28;20034;-60
2022/08/24 07:13:24;;;;;;;16.55;11.65;;;22.80;99.90;;;;;;5027133;28;20310;-61
2022/08/24 07:15:51;;;;;;;18.77;11.13;;;22.90;99.90;;;;;;5033272;28;20206;-60
2022/08/24 07:18:18;;;;;;;20.75;11.48;;;23.00;99.90;;;;;;5034466;28;20503;-60
2022/08/24 07:20:45;;;;;;;16.23;11.07;;;23.10;99.90;;;;;;5035712;28;20344;-60
2022/08/24 07:23:13;;;;;;;18.45;11.13;;;23.30;99.90;;;;;;5032323;28;20136;-60
2022/08/24 07:25:40;;;;;;;15.27;10.80;;;23.60;99.90;;;;;;5031154;28;20075;-60
2022/08/24 07:28:05;;;;;;;17.70;11.40;;;23.90;99.90;;;;;;5033578;28;20177;-60
2022/08/24 07:30:31;;;;;;;17.50;11.68;;;24.40;99.90;;;;;;5030554;28;20108;-60
2022/08/24 07:32:57;;;;;;;18.65;13.15;;;25.40;99.90;;;;;;5038216;28;20513;-60
2022/08/24 07:35:28;;;;;;;23.05;12.45;;;26.20;99.90;;;;;;5032889;28;20541;-60
2022/08/24 07:37:55;;;;;;;15.18;12.10;;;26.30;99.90;;;;;;5034033;28;20025;-60
2022/08/24 07:40:22;;;;;;;16.95;12.68;;;26.20;99.90;;;;;;5033410;28;20126;-60
2022/08/24 07:42:49;;;;;;;19.08;13.20;;;26.40;99.90;;;;;;5030970;28;20030;-60
2022/08/24 07:45:15;;;;;;;18.70;12.88;;;26.40;99.90;;;;;;5030451;28;20032;-60
2022/08/24 07:47:41;;;;;;;25.20;14.63;;;26.50;99.90;;;;;;5028043;28;20037;-60
2022/08/24 07:50:07;;;;;;;23.35;15.35;;;26.40;99.90;;;;;;5021245;28;20033;-61
2022/08/24 07:52:33;;;;;;;22.13;15.00;;;25.80;99.90;;;;;;5021033;28;20672;-61
2022/08/24 07:55:00;;;;;;;28.40;13.52;;;25.70;99.90;;;;;;5022284;28;20033;-61
2022/08/24 07:57:26;;;;;;;21.45;14.30;;;25.50;99.90;;;;;;5021888;28;20022;-61
2022/08/24 07:59:51;;;;;;;20.13;13.52;;;25.10;99.90;;;;;;5027455;28;20047;-61
2022/08/24 08:02:18;;;;;;;17.67;13.32;;;25.00;99.90;;;;;;5029195;28;20049;-61
2022/08/24 08:04:43;;;;;;;20.45;13.02;;;24.80;99.90;;;;;;5035385;28;20017;-61
2022/08/24 08:07:10;;;;;;;20.17;13.82;;;24.60;99.90;;;;;;5032852;28;20843;-61
2022/08/24 08:09:37;;;;;;;19.67;12.65;;;24.60;99.90;;;;;;5025558;28;20100;-61
2022/08/24 08:12:03;;;;;;;20.55;13.02;;;24.60;99.90;;;;;;5034480;28;20120;-61
2022/08/24 08:14:29;;;;;;;22.08;13.75;;;24.40;99.90;;;;;;5032089;28;20387;-61
2022/08/24 08:16:55;;;;;;;18.83;12.23;;;24.40;99.90;;;;;;5031443;28;20052;-61
2022/08/24 08:19:20;;;;;;;21.52;12.93;;;24.40;99.90;;;;;;5036359;28;20096;-61
2022/08/24 08:24:35;;;;;;;16.80;11.85;;;24.90;99.90;;;;;;5031012;28;20124;-61
2022/08/24 08:27:01;;;;;;;16.90;11.45;;;26.10;99.90;;;;;;5028237;28;20033;-61
2022/08/24 08:29:30;;;;;;;16.73;10.98;;;27.60;99.90;;;;;;5022566;28;20341;-61
2022/08/24 08:31:55;;;;;;;16.52;11.10;;;29.20;99.90;;;;;;5025393;28;20031;-62
2022/08/24 08:34:21;;;;;;;16.52;10.07;;;30.80;99.90;;;;;;5025481;28;20034;-61
2022/08/24 08:36:47;;;;;;;12.88;8.70;;;31.60;99.90;;;;;;5026406;28;20166;-61
2022/08/24 08:39:15;;;;;;;13.48;8.25;;;32.00;99.90;;;;;;5027713;28;20486;-59
2022/08/24 08:42:16;;;;;;;12.98;7.88;;;32.20;99.90;;;;;;5032006;28;20043;-59
2022/08/24 08:45:04;;;;;;;11.05;6.07;;;32.80;99.90;;;;;;5039113;28;20478;-60
2022/08/24 08:47:51;;;;;;;5.95;4.85;;;33.60;99.10;;;;;;5038820;28;20030;-60
2022/08/24 08:50:20;;;;;;;8.88;4.32;;;33.20;99.00;;;;;;5029237;28;20039;-60
2022/08/24 08:53:16;;;;;;;5.20;2.90;;;32.70;99.40;;;;;;5025273;28;20120;-61
2022/08/24 08:56:01;;;;;;;3.45;2.45;;;33.60;98.30;;;;;;5031196;28;20099;-62
2022/08/24 08:58:48;;;;;;;5.25;2.72;;;33.90;96.40;;;;;;5031694;28;20025;-62
2022/08/24 09:01:46;;;;;;;2.50;2.08;;;33.70;96.20;;;;;;5030415;28;20132;-62
2022/08/24 09:04:39;;;;;;;4.53;1.92;;;33.20;96.40;;;;;;5026192;28;20037;-61
2022/08/24 09:07:14;;;;;;;5.72;2.70;;;33.40;96.80;;;;;;5037243;28;20420;-61
2022/08/24 09:09:55;;;;;;;6.43;2.70;;;33.60;95.70;;;;;;5040139;28;20116;-61
2022/08/24 09:12:59;;;;;;;4.40;2.80;;;33.80;95.10;;;;;;5035607;28;20033;-62
2022/08/24 09:16:01;;;;;;;5.47;2.53;;;33.20;96.00;;;;;;5031877;28;20029;-62
2022/08/24 09:18:46;;;;;;;5.82;2.60;;;33.10;96.70;;;;;;5008185;28;20059;-61
2022/08/24 09:21:27;;;;;;;5.30;3.40;;;33.10;97.70;;;;;;5037906;28;20389;-61
2022/08/24 09:24:24;;;;;;;6.35;3.42;;;34.00;95.50;;;;;;5035242;28;20028;-62
2022/08/24 09:27:12;;;;;;;7.75;3.60;;;34.50;94.20;;;;;;5034023;28;20048;-62
2022/08/24 09:30:20;;;;;;;3.88;3.40;;;34.50;94.20;;;;;;5034671;28;20070;-62
2022/08/24 09:33:08;;;;;;;7.55;3.50;;;34.90;92.90;;;;;;5030998;28;20033;-62
2022/08/24 09:36:00;;;;;;;7.75;3.92;;;35.50;91.90;;;;;;5034951;28;20145;-62
2022/08/24 09:38:39;;;;;;;;;;;35.30;92.20;;;;;;5040935;28;20029;-62
2022/08/24 09:41:19;;;;;;;4.57;3.00;;;35.00;92.20;;;;;;5034390;28;21886;-62
2022/08/24 09:44:19;;;;;;;4.15;2.92;;;34.90;93.30;;;;;;5035846;28;20125;-62
2022/08/24 09:46:44;;;;;;;6.28;2.85;;;35.70;89.30;;;;;;5032662;28;20111;-62
2022/08/24 09:49:18;;;;;;;5.65;2.65;;;35.10;91.00;;;;;;5039452;28;20106;-62
2022/08/24 09:52:19;;;;;;;4.35;2.72;;;34.90;91.30;;;;;;5025698;28;20161;-62
2022/08/24 09:55:09;;;;;;;7.07;2.55;;;35.80;90.20;;;;;;5028356;28;20044;-62
2022/08/24 09:57:51;;;;;;;4.82;2.92;;;35.40;89.90;;;;;;5018312;28;20041;-62
2022/08/24 10:00:22;;;;;;;7.18;2.42;;;35.80;88.30;;;;;;5035415;28;20051;-62
2022/08/24 10:03:26;;;;;;;4.88;2.20;;;36.00;87.10;;;;;;5033675;28;20064;-62
2022/08/24 10:06:10;;;;;;;4.88;2.25;;;35.70;86.30;;;;;;5032224;28;20056;-62
2022/08/24 10:08:56;;;;;;;5.43;2.33;;;35.40;87.00;;;;;;5036268;28;20080;-62
2022/08/24 10:11:21;;;;;;;4.90;2.10;;;35.80;86.80;;;;;;5032833;28;20036;-62
2022/08/24 10:14:09;;;;;;;4.57;2.03;;;36.40;83.40;;;;;;5036748;28;20025;-62
2022/08/24 10:16:53;;;;;;;4.80;1.85;;;36.70;82.50;;;;;;5034710;28;20390;-62
2022/08/24 10:19:50;;;;;;;6.60;2.10;;;36.80;82.00;;;;;;5037914;28;20044;-62
2022/08/24 10:22:31;;;;;;;5.05;2.47;;;36.90;80.70;;;;;;5034383;28;20030;-62
2022/08/24 10:25:24;;;;;;;2.65;2.20;;;37.00;79.40;;;;;;5032239;28;20025;-62
2022/08/24 10:27:52;;;;;;;6.22;2.15;;;36.40;81.30;;;;;;5029075;28;20417;-62
2022/08/24 10:30:46;;;;;;;5.07;2.10;;;37.30;78.30;;;;;;5041609;28;20502;-62
2022/08/24 10:33:25;;;;;;;3.33;1.60;;;35.90;78.30;;;;;;5031092;28;20032;-62
2022/08/24 10:35:59;;;;;;;3.95;1.73;;;35.90;80.80;;;;;;5029171;28;20344;-62
2022/08/24 10:42:05;;;;;;;7.07;1.23;;;36.10;79.10;;;;;;5006593;28;20524;-62
2022/08/24 10:44:41;;;;;;;3.63;1.30;;;37.10;74.90;;;;;;5033971;28;20044;-62
2022/08/24 10:47:10;;;;;;;5.95;1.30;;;37.00;74.80;;;;;;5029651;28;20363;-62
2022/08/24 10:49:36;;;;;;;5.78;1.50;;;36.80;73.20;;;;;;5023639;28;20064;-62
2022/08/24 10:52:25;;;;;;;2.80;1.27;;;36.20;76.70;;;;;;5039779;28;20139;-62
2022/08/24 10:54:51;;;;;;;3.35;1.02;;;35.40;77.50;;;;;;5034373;28;20033;-62
2022/08/24 10:57:38;;;;;;;3.50;1.10;;;35.90;75.20;;;;;;5036339;28;20033;-63
2022/08/24 11:00:15;;;;;;;3.72;0.80;;;36.10;74.80;;;;;;5033062;28;20048;-63
2022/08/24 11:02:44;;;;;;;4.18;1.02;;;35.90;74.60;;;;;;5034553;28;20371;-62
2022/08/24 11:05:13;;;;;;;5.85;1.10;;;34.70;76.70;;;;;;5029543;28;20134;-62
2022/08/24 11:08:04;;;;;;;4.43;1.20;;;35.60;75.80;;;;;;5030526;28;20033;-62
2022/08/24 11:10:39;;;;;;;5.77;1.40;;;36.20;74.50;;;;;;5035709;28;20487;-62
2022/08/24 11:13:20;;;;;;;4.20;1.13;;;36.70;71.80;;;;;;5039377;28;20138;-62
2022/08/24 11:15:52;;;;;;;6.03;1.00;;;36.90;71.20;;;;;;5038096;28;20159;-62
2022/08/24 11:18:18;;;;;;;3.22;1.30;;;37.30;69.50;;;;;;5032695;28;20048;-62
2022/08/24 11:20:46;;;;;;;2.03;1.02;;;37.20;69.40;;;;;;5042444;28;20029;-63
2022/08/24 11:23:24;;;;;;;1.98;1.30;;;37.60;69.50;;;;;;5038878;28;20385;-62
2022/08/24 11:26:12;;;;;;;5.43;1.20;;;37.30;70.60;;;;;;5036734;28;20036;-63
2022/08/24 11:28:57;;;;;;;3.60;1.50;;;38.00;68.90;;;;;;5028970;28;20148;-63
2022/08/24 11:31:39;;;;;;;4.90;1.50;;;36.80;69.50;;;;;;5034319;28;20055;-63
2022/08/24 11:34:30;;;;;;;4.50;1.42;;;36.70;70.70;;;;;;5037570;28;20025;-62
2022/08/24 11:36:56;;;;;;;7.70;2.00;;;37.10;69.80;;;;;;5032768;28;20095;-63
2022/08/24 11:39:37;;;;;;;2.53;1.50;;;38.10;67.30;;;;;;5033802;28;20025;-63
2022/08/24 11:42:25;;;;;;;3.83;1.50;;;37.30;68.40;;;;;;5028673;28;20497;-63
2022/08/24 11:45:19;;;;;;;3.55;1.52;;;37.50;68.10;;;;;;5036149;28;20715;-62
2022/08/24 11:48:01;;;;;;;3.65;1.48;;;36.90;69.90;;;;;;5032992;28;20111;-62
2022/08/24 11:50:33;;;;;;;2.78;1.27;;;36.60;70.30;;;;;;5036564;28;20090;-63
2022/08/24 11:53:12;;;;;;;4.70;1.70;;;36.10;70.50;;;;;;5036789;28;20616;-62
2022/08/24 11:56:05;;;;;;;2.58;1.63;;;35.60;71.20;;;;;;5034013;28;20807;-62
2022/08/24 11:58:46;;;;;;;2.75;1.20;;;35.30;72.70;;;;;;5030648;28;20079;-62
2022/08/24 12:01:31;;;;;;;2.17;1.10;;;35.80;71.80;;;;;;5037878;28;20045;-62
2022/08/24 12:03:59;;;;;;;5.30;1.00;;;34.60;73.50;;;;;;5033480;28;21249;-63
2022/08/24 12:06:40;;;;;;;2.42;1.20;;;34.40;74.20;;;;;;5029170;28;20029;-62
2022/08/24 12:09:45;;;;;;;4.22;1.27;;;33.60;75.70;;;;;;5035789;28;20041;-62
2022/08/24 12:12:37;;;;;;;1.73;0.88;;;33.30;77.70;;;;;;5033483;28;20037;-63
2022/08/24 12:15:03;;;;;;;;;;;34.20;74.50;;;;;;5037764;28;20141;-63
2022/08/24 12:17:54;;;;;;;2.15;1.05;;;34.80;72.30;;;;;;5033210;28;19919;-61
2022/08/24 12:20:23;;;;;;;1.80;0.90;;;34.90;71.90;;;;;;5036171;28;20048;-61
2022/08/24 12:22:50;;;;;;;5.85;1.20;;;34.50;73.70;;;;;;5037690;28;20040;-61
2022/08/24 12:28:03;;;;;;;3.47;1.00;;;34.30;72.60;;;;;;5036664;28;20039;-63
2022/08/24 12:30:29;;;;;;;6.47;1.20;;;34.30;72.50;;;;;;5038116;28;20044;-62
2022/08/24 12:33:04;;;;;;;3.20;1.30;;;34.40;73.00;;;;;;5038618;28;20177;-61
2022/08/24 12:35:37;;;;;;;3.35;0.77;;;34.30;73.60;;;;;;5037204;28;20110;-61
2022/08/24 12:38:15;;;;;;;3.33;0.95;;;34.50;73.40;;;;;;5027408;28;20044;-61
2022/08/24 12:40:48;;;;;;;2.13;0.80;;;34.70;72.20;;;;;;5033120;28;20576;-61
2022/08/24 12:43:30;;;;;;;1.88;0.82;;;35.00;72.90;;;;;;5033943;28;20445;-61
2022/08/24 12:46:00;;;;;;;4.70;0.95;;;35.80;71.70;;;;;;5034164;28;20486;-62
2022/08/24 12:48:25;;;;;;;3.00;0.80;;;36.50;68.50;;;;;;5032559;28;20028;-61
2022/08/24 12:50:51;;;;;;;1.05;0.90;;;36.00;69.00;;;;;;5040089;28;20033;-61
2022/08/24 12:53:22;;;;;;;4.47;0.90;;;34.80;70.20;;;;;;5037654;28;20069;-63
2022/08/24 12:56:00;;;;;;;3.53;1.00;;;34.20;71.70;;;;;;5026058;28;20510;-62
2022/08/24 12:58:39;;;;;;;1.50;0.90;;;34.00;73.00;;;;;;5031217;28;20172;-62
2022/08/24 13:01:06;;;;;;;3.15;0.85;;;33.70;74.80;;;;;;5036762;28;20045;-61
2022/08/24 13:03:40;;;;;;;3.35;1.00;;;32.80;76.60;;;;;;5031413;28;20100;-61
2022/08/24 13:06:15;;;;;;;3.67;1.05;;;32.60;77.30;;;;;;5037534;28;21331;-61
2022/08/24 13:08:49;;;;;;;1.98;1.02;;;32.20;78.90;;;;;;5032416;28;20041;-62
2022/08/24 13:11:32;;;;;;;3.47;1.10;;;32.70;77.30;;;;;;5037036;28;20109;-63